Terminal Aerodrome Forecast
Issued by NWS

Home | Current Version | Previous Version | Text Only | Print | Product List | Glossary On
Versions: 1 2 3 4 5 6 7 8 9 10 11 12
000
FTUS44 KEPZ 302300 RRA
TAFTCS
TAF
KTCS 302338Z 3100/3118 05009KT P6SM SKC
     FM310500 35010G16KT P6SM BKN250
     FM311400 03008KT P6SM BKN250=

USA.gov is the U.S. government's official web portal to all federal, state and local government web resources and services.